Time;durP1;ratioP1;P1;durP2;ratioP2;P2;SDS_P1;SDS_P2;PMS_P1;PMS_P2;Temp;Humidity;BMP_temperature;BMP_pressure;BME280_temperature;BME280_humidity;BME280_pressure;Samples;Min_cycle;Max_cycle;Signal;HPM_P1;HPM_P2
2022/01/18 00:01:33;;;;;;;50.13;17.52;;;;;;;4.81;98.95;101308.16;4993099;28;20484;-61
2022/01/18 00:04:00;;;;;;;51.97;16.77;;;;;;;4.73;99.91;101309.75;4991037;28;20042;-61
2022/01/18 00:06:25;;;;;;;44.33;16.73;;;;;;;4.71;99.83;101318.88;4988718;28;20069;-61
2022/01/18 00:08:50;;;;;;;50.03;16.77;;;;;;;4.70;100.00;101317.22;4987714;28;20034;-62
2022/01/18 00:11:18;;;;;;;43.97;17.27;;;;;;;4.70;99.93;101320.69;4987891;28;20046;-61
2022/01/18 00:13:55;;;;;;;47.22;16.35;;;;;;;4.74;99.24;101323.88;4994766;28;20022;-61
2022/01/18 00:16:49;;;;;;;45.38;14.45;;;;;;;4.75;98.57;101314.94;4993702;28;20046;-61
2022/01/18 00:19:14;;;;;;;38.90;14.23;;;;;;;4.80;98.13;101328.59;4986687;28;20034;-61
2022/01/18 00:24:17;;;;;;;33.00;13.85;;;;;;;4.76;97.91;101324.56;4995688;28;20778;-61
2022/01/18 00:26:42;;;;;;;40.97;14.65;;;;;;;4.77;98.21;101328.91;4993835;28;20042;-61
2022/01/18 00:29:12;;;;;;;37.55;12.77;;;;;;;4.76;97.51;101332.53;4987229;28;20023;-61
2022/01/18 00:31:58;;;;;;;38.38;13.45;;;;;;;4.75;97.63;101325.56;4992359;28;20282;-61
2022/01/18 00:34:28;;;;;;;45.63;13.77;;;;;;;4.73;97.66;101343.47;4990051;28;20034;-61
2022/01/18 00:37:00;;;;;;;45.13;12.15;;;;;;;4.79;97.38;101344.66;4989475;28;20038;-62
2022/01/18 00:39:25;;;;;;;46.17;12.38;;;;;;;4.89;96.29;101340.09;4986957;28;20113;-61
2022/01/18 00:41:50;;;;;;;32.60;11.98;;;;;;;4.86;96.57;101337.75;4992147;28;20626;-61
2022/01/18 00:44:16;;;;;;;35.75;10.95;;;;;;;4.88;96.13;101338.44;4993899;28;20030;-61
2022/01/18 00:46:41;;;;;;;33.75;11.25;;;;;;;4.79;96.99;101339.34;4991248;28;20476;-61
2022/01/18 00:49:07;;;;;;;41.90;11.98;;;;;;;4.77;97.06;101347.50;4989475;28;20392;-61
2022/01/18 00:51:37;;;;;;;38.90;10.48;;;;;;;4.83;96.30;101351.34;4992311;28;20053;-61
2022/01/18 00:54:03;;;;;;;35.83;11.03;;;;;;;4.90;96.28;101355.91;4989521;28;20692;-62
2022/01/18 00:56:31;;;;;;;46.60;11.57;;;;;;;4.88;96.07;101360.53;4989779;28;20047;-62
2022/01/18 00:58:57;;;;;;;28.98;10.18;;;;;;;4.87;96.14;101358.88;4979136;28;20030;-61
2022/01/18 01:01:24;;;;;;;33.08;10.15;;;;;;;4.82;97.25;101365.59;4979632;28;20054;-62
2022/01/18 01:03:51;;;;;;;40.10;11.65;;;;;;;4.84;97.10;101360.97;4987972;28;20041;-61
2022/01/18 01:06:16;;;;;;;33.42;11.15;;;;;;;4.81;97.37;101356.81;4990834;28;20370;-61
2022/01/18 01:08:42;;;;;;;31.90;10.57;;;;;;;4.83;97.90;101354.00;4986558;28;20479;-61
2022/01/18 01:11:08;;;;;;;35.85;11.05;;;;;;;4.84;98.04;101351.22;4989489;28;20061;-62
2022/01/18 01:13:34;;;;;;;37.58;11.18;;;;;;;4.80;98.13;101360.47;4986305;28;20030;-61
2022/01/18 01:18:45;;;;;;;38.85;11.07;;;;;;;4.82;97.53;101350.53;4993063;28;20109;-61
2022/01/18 01:32:56;;;;;;;34.92;8.85;;;;;;;4.82;98.38;101363.81;4990299;28;20057;-61
2022/01/18 01:43:28;;;;;;;34.90;10.23;;;;;;;4.71;98.23;101362.19;4984837;28;20041;-61
2022/01/18 01:45:54;;;;;;;34.70;9.65;;;;;;;4.72;97.69;101361.22;4990928;28;20050;-61
2022/01/18 01:48:22;;;;;;;32.05;10.18;;;;;;;4.73;98.35;101359.41;4989117;28;20084;-61
2022/01/18 01:50:51;;;;;;;27.10;8.70;;;;;;;4.83;98.16;101362.81;4994028;28;20750;-61
2022/01/18 01:53:20;;;;;;;43.45;9.40;;;;;;;4.80;98.41;101364.94;4992644;28;20372;-61
2022/01/18 01:55:46;;;;;;;40.17;9.80;;;;;;;4.82;98.89;101365.59;5001130;28;20492;-61
2022/01/18 01:58:11;;;;;;;35.17;9.05;;;;;;;4.86;99.33;101364.31;4988866;28;20080;-61
2022/01/18 02:00:45;;;;;;;30.85;9.63;;;;;;;4.75;98.50;101368.06;4985398;28;20477;-61
2022/01/18 02:03:11;;;;;;;60.63;10.70;;;;;;;4.71;98.81;101369.34;4985468;28;20468;-61
2022/01/18 02:05:36;;;;;;;26.98;9.68;;;;;;;4.73;98.60;101364.72;4993230;28;20050;-61
2022/01/18 02:08:02;;;;;;;34.22;9.60;;;;;;;4.75;98.77;101370.72;4998515;28;20096;-61
2022/01/18 02:10:27;;;;;;;30.35;10.65;;;;;;;4.75;99.05;101370.72;4988003;28;20046;-61
2022/01/18 02:12:53;;;;;;;29.27;9.27;;;;;;;4.76;99.62;101364.41;4990136;28;20053;-61
2022/01/18 02:15:19;;;;;;;35.92;8.85;;;;;;;4.70;99.72;101376.47;4993773;28;20037;-62
2022/01/18 02:23:14;;;;;;;28.45;7.35;;;;;;;4.64;99.00;101355.84;4993143;28;20072;-62
2022/01/18 02:25:41;;;;;;;32.22;7.95;;;;;;;4.64;99.09;101360.31;4993037;28;20042;-62
2022/01/18 02:28:06;;;;;;;26.13;7.28;;;;;;;4.71;99.18;101356.06;4985100;28;20122;-62
2022/01/18 02:30:32;;;;;;;30.55;7.88;;;;;;;4.77;98.93;101355.47;4984529;28;20046;-61
2022/01/18 02:32:57;;;;;;;31.27;7.00;;;;;;;4.65;98.35;101356.69;4989371;28;20682;-62
2022/01/18 02:35:22;;;;;;;28.75;6.57;;;;;;;4.66;98.72;101363.66;4985227;28;20038;-61
2022/01/18 02:37:52;;;;;;;37.25;6.93;;;;;;;4.65;98.40;101357.50;4988576;28;20085;-61
2022/01/18 02:40:18;;;;;;;30.43;6.50;;;;;;;4.64;98.39;101360.31;4987333;28;20037;-61
2022/01/18 02:42:44;;;;;;;30.50;6.65;;;;;;;4.64;98.44;101360.31;4993056;28;20044;-61
2022/01/18 02:45:09;;;;;;;36.15;6.35;;;;;;;4.66;97.98;101355.69;4986730;28;20026;-61
2022/01/18 02:47:34;;;;;;;34.20;6.43;;;;;;;4.53;98.53;101354.22;4985674;28;20029;-61
2022/01/18 02:50:00;;;;;;;25.52;6.45;;;;;;;4.60;98.71;101356.31;4984810;28;20030;-61
2022/01/18 02:52:25;;;;;;;21.92;5.70;;;;;;;4.67;97.44;101350.22;4990396;28;20041;-61
2022/01/18 02:54:51;;;;;;;31.77;5.65;;;;;;;4.68;97.12;101353.72;4990592;28;20062;-61
2022/01/18 02:57:25;;;;;;;26.25;6.47;;;;;;;4.61;97.58;101350.81;4992158;28;20049;-61
2022/01/18 03:00:06;;;;;;;23.70;5.53;;;;;;;4.56;97.63;101341.63;4979738;28;20033;-61
2022/01/18 03:05:15;;;;;;;27.27;5.50;;;;;;;4.60;97.94;101348.31;4991250;28;20133;-61
2022/01/18 03:07:41;;;;;;;22.10;5.47;;;;;;;4.59;98.02;101342.16;4983946;28;20026;-61
2022/01/18 03:10:08;;;;;;;18.95;5.95;;;;;;;4.56;97.84;101337.16;4986992;28;20132;-61
2022/01/18 03:12:33;;;;;;;25.30;5.65;;;;;;;4.59;98.39;101341.34;4983771;28;20045;-61
2022/01/18 03:14:58;;;;;;;20.05;5.60;;;;;;;4.52;98.39;101341.94;4989845;28;20026;-61
2022/01/18 03:17:24;;;;;;;22.00;5.38;;;;;;;4.49;98.73;101336.94;4989500;28;20444;-61
2022/01/18 03:19:50;;;;;;;19.58;5.47;;;;;;;4.52;98.64;101336.63;4990635;28;20030;-61
2022/01/18 03:22:17;;;;;;;28.88;5.88;;;;;;;4.47;98.59;101340.75;4996182;28;20811;-63
2022/01/18 03:24:49;;;;;;;25.38;5.85;;;;;;;4.40;99.28;101337.84;4994619;28;20092;-61
2022/01/18 03:30:00;;;;;;;40.38;6.68;;;;;;;4.51;99.70;101342.91;4987185;28;20452;-61
2022/01/18 03:32:25;;;;;;;28.05;6.45;;;;;;;4.61;99.47;101340.19;4982352;28;20058;-61
2022/01/18 03:34:51;;;;;;;27.80;6.82;;;;;;;4.61;99.59;101344.69;4992118;28;20041;-61
2022/01/18 03:37:16;;;;;;;27.33;6.60;;;;;;;4.53;99.65;101343.59;4993127;28;20057;-61
2022/01/18 03:39:41;;;;;;;31.42;7.03;;;;;;;4.56;99.50;101347.78;4991411;28;20080;-61
2022/01/18 03:44:47;;;;;;;41.05;9.20;;;;;;;4.49;100.00;101352.88;4991691;28;20141;-61
2022/01/18 03:47:14;;;;;;;34.28;7.95;;;;;;;4.49;100.00;101352.03;4996879;28;20044;-61
2022/01/18 03:49:39;;;;;;;36.08;8.23;;;;;;;4.43;100.00;101347.31;4988714;28;20098;-62
2022/01/18 03:52:05;;;;;;;38.25;8.73;;;;;;;4.40;100.00;101352.94;4992346;28;20042;-61
2022/01/18 03:54:30;;;;;;;38.30;8.75;;;;;;;4.36;100.00;101355.06;4992161;28;20034;-61
2022/01/18 03:56:56;;;;;;;31.63;7.85;;;;;;;4.38;100.00;101360.22;4996415;28;20060;-61
2022/01/18 03:59:21;;;;;;;33.80;9.82;;;;;;;4.38;100.00;101366.34;4990423;28;20420;-61
2022/01/18 04:01:46;;;;;;;27.85;9.80;;;;;;;4.39;100.00;101365.38;4996907;28;20543;-61
2022/01/18 04:04:12;;;;;;;28.30;8.48;;;;;;;4.40;100.00;101364.41;4987159;28;20038;-62
2022/01/18 04:06:38;;;;;;;36.13;10.27;;;;;;;4.38;100.00;101371.66;4989047;28;20042;-62
2022/01/18 04:09:03;;;;;;;38.22;11.02;;;;;;;4.49;100.00;101368.81;4973138;28;20035;-61
2022/01/18 04:11:29;;;;;;;34.97;11.65;;;;;;;4.45;100.00;101369.25;4990423;28;20076;-62
2022/01/18 04:13:54;;;;;;;32.22;11.75;;;;;;;4.40;100.00;101375.03;4989096;28;20041;-61
2022/01/18 04:16:19;;;;;;;33.97;11.38;;;;;;;4.46;100.00;101374.41;4988562;28;20042;-62
2022/01/18 04:18:53;;;;;;;33.47;11.90;;;;;;;4.45;100.00;101377.22;4992861;28;20037;-63
2022/01/18 04:29:12;;;;;;;48.47;12.77;;;;;;;4.39;100.00;101361.88;4989658;28;20042;-62
2022/01/18 04:31:37;;;;;;;34.70;11.90;;;;;;;4.29;100.00;101361.94;4988131;28;20054;-62
2022/01/18 04:34:03;;;;;;;40.17;12.50;;;;;;;4.44;100.00;101379.06;4987423;28;20042;-62
2022/01/18 04:36:28;;;;;;;37.72;14.00;;;;;;;4.33;100.00;101368.63;4988151;28;20070;-62
2022/01/18 04:38:54;;;;;;;37.22;13.35;;;;;;;4.32;100.00;101367.81;4999709;28;20049;-62
2022/01/18 04:41:26;;;;;;;39.50;13.95;;;;;;;4.39;100.00;101368.00;4994276;28;20069;-61
2022/01/18 04:49:14;;;;;;;35.08;13.40;;;;;;;4.36;100.00;101359.53;4992647;28;20045;-62
2022/01/18 04:51:41;;;;;;;35.65;14.27;;;;;;;4.35;100.00;101361.34;4989315;28;20544;-62
2022/01/18 04:54:08;;;;;;;50.05;16.08;;;;;;;4.30;100.00;101355.66;5002827;28;20122;-62
2022/01/18 04:58:59;;;;;;;47.70;16.88;;;;;;;4.31;100.00;101366.13;4993753;28;20049;-62
2022/01/18 05:01:24;;;;;;;47.90;15.45;;;;;;;4.30;100.00;101368.94;4990934;28;20512;-62
2022/01/18 05:03:50;;;;;;;47.33;15.55;;;;;;;4.21;100.00;101370.66;4995206;28;20284;-62
2022/01/18 05:06:17;;;;;;;45.35;16.02;;;;;;;4.21;100.00;101370.66;4985365;28;20081;-62
2022/01/18 05:08:43;;;;;;;46.78;16.77;;;;;;;4.23;100.00;101367.84;4982485;28;20050;-62
2022/01/18 05:11:12;;;;;;;51.05;18.27;;;;;;;4.23;100.00;101378.47;4983597;28;20448;-62
2022/01/18 05:21:32;;;;;;;57.63;18.85;;;;;;;4.28;100.00;101386.81;4985637;28;20057;-62
2022/01/18 05:23:57;;;;;;;44.80;16.70;;;;;;;4.24;100.00;101378.34;4992476;28;20030;-62
2022/01/18 05:26:23;;;;;;;57.60;18.63;;;;;;;4.26;100.00;101383.47;4985919;28;20038;-62
2022/01/18 05:28:49;;;;;;;50.28;17.70;;;;;;;4.23;100.00;101378.47;4982736;28;20080;-62
2022/01/18 05:31:15;;;;;;;61.28;19.40;;;;;;;4.26;100.00;101386.13;4988728;28;20051;-62
2022/01/18 05:33:42;;;;;;;51.63;20.02;;;;;;;4.27;100.00;101386.00;4987476;28;20037;-62
2022/01/18 05:36:10;;;;;;;51.00;17.83;;;;;;;4.26;100.00;101386.13;4991977;28;20041;-62
2022/01/18 05:38:36;;;;;;;52.00;17.55;;;;;;;4.23;100.00;101379.31;4988248;28;21189;-62
2022/01/18 05:41:05;;;;;;;52.38;17.95;;;;;;;4.27;100.00;101390.47;4992403;28;20093;-62
2022/01/18 05:43:31;;;;;;;50.78;19.00;;;;;;;4.25;100.00;101387.13;4990416;28;20121;-62
2022/01/18 05:45:56;;;;;;;54.33;19.00;;;;;;;4.22;100.00;101390.91;4986905;28;20045;-62
2022/01/18 05:48:23;;;;;;;44.13;17.75;;;;;;;4.24;100.00;101391.59;4984590;28;20401;-62
2022/01/18 05:50:48;;;;;;;72.13;18.90;;;;;;;4.20;100.00;101389.41;4988524;28;20062;-62
2022/01/18 05:53:14;;;;;;;48.47;19.38;;;;;;;4.25;100.00;101397.75;4989556;28;20041;-61
2022/01/18 05:55:39;;;;;;;61.22;20.17;;;;;;;4.27;100.00;101398.44;4991580;28;20042;-61
2022/01/18 05:58:05;;;;;;;65.97;20.77;;;;;;;4.26;100.00;101396.75;4985946;28;20038;-60
2022/01/18 06:00:31;;;;;;;58.42;18.88;;;;;;;4.28;100.00;101405.41;4984508;28;20081;-60
2022/01/18 06:08:07;;;;;;;51.22;18.38;;;;;;;4.31;100.00;101408.59;4985950;28;20120;-61
2022/01/18 06:10:32;;;;;;;68.15;20.52;;;;;;;4.27;100.00;101417.84;4992814;28;20046;-61
2022/01/18 06:13:01;;;;;;;55.83;19.58;;;;;;;4.34;100.00;101423.38;5003230;28;20169;-61
2022/01/18 06:15:26;;;;;;;54.65;18.40;;;;;;;4.35;100.00;101419.75;4985182;28;20443;-63
2022/01/18 06:17:52;;;;;;;57.30;21.65;;;;;;;4.24;100.00;101425.25;4991816;28;20030;-62
2022/01/18 06:20:17;;;;;;;61.92;21.58;;;;;;;4.31;100.00;101427.16;4981790;28;20030;-62
2022/01/18 06:22:42;;;;;;;72.85;24.20;;;;;;;4.33;100.00;101422.56;4989928;28;20030;-62
2022/01/18 06:25:08;;;;;;;45.30;18.35;;;;;;;4.40;100.00;101428.13;4985599;28;20030;-63
2022/01/18 06:27:34;;;;;;;52.95;18.70;;;;;;;4.35;100.00;101433.03;4990962;28;20026;-62
2022/01/18 06:29:59;;;;;;;53.13;19.80;;;;;;;4.31;100.00;101429.81;4995714;28;20040;-62
2022/01/18 06:32:25;;;;;;;51.75;18.83;;;;;;;4.32;100.00;101426.22;4989974;28;20054;-60
2022/01/18 06:34:51;;;;;;;50.80;18.25;;;;;;;4.33;100.00;101433.19;4989456;28;20061;-60
2022/01/18 06:37:16;;;;;;;54.83;17.83;;;;;;;4.40;100.00;101432.59;4980623;28;20126;-63
2022/01/18 06:39:42;;;;;;;52.05;16.90;;;;;;;4.31;100.00;101434.31;4990061;28;20022;-61
2022/01/18 06:42:10;;;;;;;42.35;16.23;;;;;;;4.29;100.00;101433.63;4990534;28;20038;-60
2022/01/18 06:44:36;;;;;;;47.17;17.92;;;;;;;4.30;100.00;101443.28;4983126;28;20078;-62
2022/01/18 06:47:01;;;;;;;55.60;18.00;;;;;;;4.24;100.00;101443.84;4990913;28;20129;-63
2022/01/18 06:49:26;;;;;;;56.65;17.55;;;;;;;4.30;100.00;101437.97;4981185;28;20424;-63
2022/01/18 06:51:52;;;;;;;53.75;17.08;;;;;;;4.32;100.00;101446.63;4982783;28;20042;-62
2022/01/18 06:54:18;;;;;;;54.53;17.45;;;;;;;4.36;100.00;101444.50;4988093;28;20472;-62
2022/01/18 06:56:47;;;;;;;39.25;17.05;;;;;;;4.34;100.00;101444.63;4981347;28;20030;-62
2022/01/18 06:59:13;;;;;;;49.65;17.08;;;;;;;4.32;100.00;101441.31;4995110;28;20028;-62
2022/01/18 07:01:39;;;;;;;48.63;16.88;;;;;;;4.22;100.00;101451.09;5000809;28;20046;-62
2022/01/18 07:04:04;;;;;;;47.55;16.92;;;;;;;4.28;100.00;101459.34;4985697;28;20451;-62
2022/01/18 07:06:29;;;;;;;45.88;16.83;;;;;;;4.20;100.00;101448.63;4992437;28;20050;-62
2022/01/18 07:08:55;;;;;;;48.80;16.65;;;;;;;4.20;100.00;101458.41;4987772;28;20038;-63
2022/01/18 07:11:20;;;;;;;57.60;18.27;;;;;;;4.18;100.00;101457.72;4984937;28;20389;-62
2022/01/18 07:13:46;;;;;;;56.38;19.33;;;;;;;4.18;100.00;101468.34;4982742;28;20113;-63
2022/01/18 07:16:12;;;;;;;52.70;19.42;;;;;;;4.16;100.00;101464.97;4995088;28;20765;-62
2022/01/18 07:18:37;;;;;;;53.00;19.23;;;;;;;4.16;100.00;101464.97;4977713;28;20042;-62
2022/01/18 07:21:03;;;;;;;57.78;20.70;;;;;;;4.30;100.00;101461.84;4981921;28;20043;-62
2022/01/18 07:23:28;;;;;;;59.45;20.13;;;;;;;4.25;100.00;101466.75;4986002;28;20388;-61
2022/01/18 07:25:53;;;;;;;61.28;20.13;;;;;;;4.26;100.00;101466.59;4988277;28;20496;-61
2022/01/18 07:28:19;;;;;;;60.28;21.70;;;;;;;4.30;100.00;101465.34;4986123;28;20022;-61
2022/01/18 07:30:45;;;;;;;58.22;21.88;;;;;;;4.32;100.00;101470.50;4987069;28;20061;-61
2022/01/18 07:33:13;;;;;;;56.35;22.25;;;;;;;4.25;100.00;101464.13;4987592;28;20109;-61
2022/01/18 07:35:39;;;;;;;64.45;23.52;;;;;;;4.26;100.00;101474.56;4982987;28;20464;-61
2022/01/18 07:38:04;;;;;;;62.03;21.48;;;;;;;4.29;100.00;101469.00;4988953;28;20034;-63
2022/01/18 07:40:31;;;;;;;68.38;23.90;;;;;;;4.28;100.00;101472.59;4994147;28;20046;-63
2022/01/18 07:42:57;;;;;;;68.68;22.35;;;;;;;4.34;100.00;101465.88;4975880;28;20033;-61
2022/01/18 07:45:22;;;;;;;62.20;23.35;;;;;;;4.34;100.00;101460.56;4989241;28;20137;-62
2022/01/18 07:47:48;;;;;;;64.80;22.42;;;;;;;4.31;100.00;101461.69;4991316;28;20034;-62
2022/01/18 07:50:14;;;;;;;65.90;24.95;;;;;;;4.36;100.00;101469.22;4992652;28;20034;-62
2022/01/18 07:52:40;;;;;;;80.63;33.38;;;;;;;4.36;100.00;101469.22;4985137;28;20038;-62
2022/01/18 07:55:05;;;;;;;100.70;36.90;;;;;;;4.37;100.00;101478.88;4990964;28;20038;-62
2022/01/18 07:57:31;;;;;;;104.05;43.20;;;;;;;4.40;100.00;101467.94;4989230;28;20022;-62
2022/01/18 07:59:56;;;;;;;81.15;29.10;;;;;;;4.44;100.00;101473.78;4991145;28;20092;-61
2022/01/18 08:02:22;;;;;;;65.38;24.60;;;;;;;4.45;100.00;101473.66;4988758;28;20042;-61
2022/01/18 08:04:47;;;;;;;66.50;24.25;;;;;;;4.44;100.00;101461.38;4987359;28;20030;-61
2022/01/18 08:07:13;;;;;;;60.22;22.15;;;;;;;4.50;100.00;101466.06;4992079;28;20031;-60
2022/01/18 08:09:38;;;;;;;63.67;22.52;;;;;;;4.45;100.00;101468.34;4988161;28;20030;-61
2022/01/18 08:12:05;;;;;;;63.35;22.83;;;;;;;4.44;100.00;101474.66;4986736;28;20464;-61
2022/01/18 08:14:32;;;;;;;75.07;23.88;;;;;;;4.49;100.00;101479.50;4984857;28;20113;-60
2022/01/18 08:17:00;;;;;;;65.20;24.40;;;;;;;4.47;100.00;101481.47;4994088;28;20808;-62
2022/01/18 08:19:29;;;;;;;61.10;23.17;;;;;;;4.48;100.00;101483.97;4993360;28;20538;-62
2022/01/18 08:21:55;;;;;;;82.05;25.33;;;;;;;4.44;100.00;101481.75;4989404;28;20046;-61
2022/01/18 08:24:21;;;;;;;67.22;24.75;;;;;;;4.47;100.00;101492.94;4979530;28;20025;-61
2022/01/18 08:26:46;;;;;;;65.68;23.50;;;;;;;4.58;100.00;101483.94;4985647;28;20455;-60
2022/01/18 08:29:14;;;;;;;73.05;25.13;;;;;;;4.61;100.00;101488.09;4988436;28;20038;-62
2022/01/18 08:31:40;;;;;;;73.30;26.23;;;;;;;4.64;100.00;101487.81;4986767;28;20042;-63
2022/01/18 08:34:06;;;;;;;74.20;25.33;;;;;;;4.65;100.00;101486.84;4990030;28;20508;-62
2022/01/18 08:36:31;;;;;;;71.38;25.48;;;;;;;4.65;100.00;101484.19;4983907;28;20042;-61
2022/01/18 08:38:56;;;;;;;78.10;26.38;;;;;;;4.64;100.00;101479.84;4983711;28;20031;-62
2022/01/18 08:41:22;;;;;;;73.80;25.10;;;;;;;4.45;100.00;101494.06;4996466;28;20073;-62
2022/01/18 08:43:48;;;;;;;66.95;24.17;;;;;;;4.48;100.00;101489.28;4989185;28;20026;-62
2022/01/18 08:46:13;;;;;;;73.07;24.10;;;;;;;4.62;100.00;101489.75;4986989;28;20409;-62
2022/01/18 08:48:38;;;;;;;63.42;23.50;;;;;;;4.67;100.00;101492.84;4984098;28;20177;-61
2022/01/18 08:51:04;;;;;;;73.65;24.40;;;;;;;4.67;100.00;101495.50;4982670;28;20042;-62
2022/01/18 08:53:31;;;;;;;69.43;23.95;;;;;;;4.68;100.00;101499.81;4985579;28;20022;-62
2022/01/18 08:55:57;;;;;;;72.40;23.08;;;;;;;4.72;100.00;101504.69;4981367;28;20050;-61
2022/01/18 08:58:22;;;;;;;65.50;23.52;;;;;;;4.64;100.00;101506.41;4989828;28;20508;-61
2022/01/18 09:00:48;;;;;;;73.03;24.70;;;;;;;4.72;100.00;101503.84;4983091;28;20038;-61
2022/01/18 09:03:14;;;;;;;65.22;22.10;;;;;;;4.81;100.00;101505.59;4987089;28;20137;-61
2022/01/18 09:05:39;;;;;;;60.70;23.75;;;;;;;4.75;100.00;101501.72;4986171;28;20069;-60
2022/01/18 09:08:07;;;;;;;58.92;21.80;;;;;;;4.76;100.00;101508.69;4981391;28;20696;-61
2022/01/18 09:10:33;;;;;;;77.85;24.65;;;;;;;4.83;100.00;101502.81;4982349;28;20459;-61
2022/01/18 09:12:58;;;;;;;64.40;23.70;;;;;;;4.90;100.00;101510.03;4982323;28;20053;-60
2022/01/18 09:15:25;;;;;;;65.30;22.85;;;;;;;4.94;100.00;101514.06;4983805;28;20504;-61
2022/01/18 09:17:51;;;;;;;71.38;23.98;;;;;;;4.93;100.00;101507.06;4984949;28;20029;-61
2022/01/18 09:20:17;;;;;;;62.45;23.70;;;;;;;4.93;100.00;101509.72;4984253;28;20100;-62
2022/01/18 09:22:44;;;;;;;64.15;22.88;;;;;;;4.99;100.00;101513.59;4984313;28;20034;-59
2022/01/18 09:25:17;;;;;;;66.13;21.95;;;;;;;5.01;100.00;101522.25;4986880;28;20058;-62
2022/01/18 09:27:42;;;;;;;49.95;21.42;;;;;;;5.02;100.00;101517.78;5016667;28;20177;-62
2022/01/18 09:30:10;;;;;;;71.03;21.13;;;;;;;5.08;100.00;101519.84;4986185;28;20038;-62
2022/01/18 09:32:35;;;;;;;67.53;22.30;;;;;;;5.26;100.00;101520.69;4983871;28;20057;-61
2022/01/18 09:35:01;;;;;;;54.67;22.30;;;;;;;5.25;100.00;101516.38;4986505;28;20077;-61
2022/01/18 09:37:26;;;;;;;62.53;22.45;;;;;;;5.29;99.96;101522.19;4981327;28;20121;-62
2022/01/18 09:39:54;;;;;;;59.60;21.02;;;;;;;5.31;99.27;101523.72;4981742;28;20038;-62
2022/01/18 09:42:20;;;;;;;56.20;22.20;;;;;;;5.29;98.83;101524.84;4983042;28;20034;-60
2022/01/18 09:44:46;;;;;;;60.67;21.25;;;;;;;5.20;99.03;101521.31;4985793;28;20076;-61
2022/01/18 09:47:12;;;;;;;61.92;22.45;;;;;;;5.16;99.56;101530.56;4982914;28;20061;-61
2022/01/18 09:49:38;;;;;;;61.75;21.95;;;;;;;5.33;100.00;101532.38;4982200;28;20042;-62
2022/01/18 09:52:03;;;;;;;57.03;20.75;;;;;;;5.48;99.34;101530.03;4983295;28;20042;-61
2022/01/18 09:54:28;;;;;;;63.28;22.75;;;;;;;5.59;98.00;101528.94;4984779;28;20538;-62
2022/01/18 09:56:54;;;;;;;59.78;21.52;;;;;;;5.46;97.33;101520.53;4981975;28;20039;-61
2022/01/18 09:59:19;;;;;;;56.28;21.25;;;;;;;5.46;97.61;101520.53;4997935;28;20036;-62
2022/01/18 10:01:45;;;;;;;58.00;20.85;;;;;;;5.45;97.70;101529.50;4984946;28;20042;-62
2022/01/18 10:04:18;;;;;;;49.42;20.35;;;;;;;5.57;97.89;101523.81;4999044;28;20030;-62
2022/01/18 10:06:53;;;;;;;63.85;22.38;;;;;;;5.65;97.78;101520.38;4981064;28;20070;-62
2022/01/18 10:09:19;;;;;;;64.30;22.50;;;;;;;5.71;96.96;101517.06;4963738;28;20787;-61
2022/01/18 10:12:03;;;;;;;47.33;18.63;;;;;;;5.64;96.73;101518.69;4985493;28;20205;-61
2022/01/18 10:14:29;;;;;;;61.42;19.92;;;;;;;5.64;96.53;101516.03;4981176;28;20763;-62
2022/01/18 10:16:55;;;;;;;65.60;21.73;;;;;;;5.67;96.39;101518.41;4982632;28;20090;-60
2022/01/18 10:19:30;;;;;;;48.10;21.65;;;;;;;5.74;96.94;101524.78;4983336;28;20158;-62
2022/01/18 10:22:05;;;;;;;58.67;21.08;;;;;;;5.82;96.95;101522.16;4968294;28;20055;-61
2022/01/18 10:24:31;;;;;;;53.25;21.80;;;;;;;5.79;96.43;101527.81;4932882;28;20560;-61
2022/01/18 10:26:57;;;;;;;66.53;21.08;;;;;;;5.83;96.08;101512.34;4980070;28;20065;-61
2022/01/18 10:29:27;;;;;;;64.75;22.67;;;;;;;5.87;95.59;101513.72;4982700;28;20074;-62
2022/01/18 10:37:03;;;;;;;62.28;20.98;;;;;;;5.76;95.70;101509.47;4982061;28;20038;-62
2022/01/18 10:39:38;;;;;;;62.10;22.25;;;;;;;5.94;96.42;101509.47;4981947;28;20414;-61
2022/01/18 10:42:29;;;;;;;52.92;22.10;;;;;;;6.09;95.37;101499.09;4985545;28;20647;-61
2022/01/18 10:45:05;;;;;;;60.55;20.17;;;;;;;6.04;92.77;101498.69;4982104;28;20088;-61
2022/01/18 10:47:32;;;;;;;70.03;21.85;;;;;;;6.21;94.30;101500.47;4984162;28;20184;-61
2022/01/18 10:50:19;;;;;;;68.07;22.27;;;;;;;6.35;93.23;101503.53;4984296;28;20531;-61
2022/01/18 10:52:45;;;;;;;67.18;23.52;;;;;;;6.16;92.69;101507.25;4986056;28;20396;-61
2022/01/18 10:55:18;;;;;;;64.35;22.42;;;;;;;6.22;94.16;101494.16;4979496;28;20027;-61
2022/01/18 10:57:43;;;;;;;62.45;21.90;;;;;;;6.28;93.45;101491.84;4988771;28;20439;-62
2022/01/18 11:00:13;;;;;;;54.88;21.42;;;;;;;6.11;93.24;101489.09;4985690;28;20070;-62
2022/01/18 11:02:40;;;;;;;59.45;20.15;;;;;;;5.92;93.63;101492.78;4990413;28;20672;-60
2022/01/18 11:05:12;;;;;;;51.58;20.55;;;;;;;5.79;94.33;101490.53;4995792;28;20050;-61
2022/01/18 11:07:38;;;;;;;65.38;20.17;;;;;;;5.68;94.62;101482.81;4984437;28;20069;-61
2022/01/18 11:10:05;;;;;;;61.35;21.50;;;;;;;5.64;95.80;101486.75;4993452;28;20510;-61
2022/01/18 11:12:31;;;;;;;58.53;20.58;;;;;;;5.64;95.53;101478.78;4979698;28;20031;-62
2022/01/18 11:15:07;;;;;;;57.53;21.35;;;;;;;5.56;95.26;101478.72;4984490;28;20125;-61
2022/01/18 11:17:39;;;;;;;63.63;22.60;;;;;;;5.84;94.91;101472.28;4986463;28;20043;-61
2022/01/18 11:20:05;;;;;;;52.92;20.92;;;;;;;5.95;94.17;101470.38;4987118;28;20112;-61
2022/01/18 11:22:31;;;;;;;53.42;22.45;;;;;;;6.04;93.03;101472.06;4982630;28;20489;-61
2022/01/18 11:24:57;;;;;;;56.88;22.48;;;;;;;5.94;93.07;101471.34;4985144;28;20042;-61
2022/01/18 11:27:23;;;;;;;58.03;20.20;;;;;;;5.75;93.14;101465.22;4984439;28;20498;-61
2022/01/18 11:29:49;;;;;;;53.80;21.40;;;;;;;5.84;94.84;101463.44;4981922;28;20030;-61
2022/01/18 11:32:14;;;;;;;58.75;20.38;;;;;;;6.00;94.13;101466.25;4983121;28;20462;-61
2022/01/18 11:34:49;;;;;;;52.83;18.25;;;;;;;6.03;94.04;101467.75;4965642;28;20257;-61
2022/01/18 11:37:17;;;;;;;64.50;27.25;;;;;;;6.00;92.09;101466.25;4988211;28;20733;-61
2022/01/18 11:39:43;;;;;;;71.32;22.58;;;;;;;5.93;93.86;101464.34;4987871;28;20038;-61
2022/01/18 11:42:11;;;;;;;50.35;18.33;;;;;;;5.88;92.08;101466.63;4982422;28;20065;-61
2022/01/18 11:44:37;;;;;;;58.95;21.75;;;;;;;5.86;93.14;101468.63;4984299;28;20038;-62
2022/01/18 11:47:03;;;;;;;61.75;21.08;;;;;;;5.94;92.98;101458.03;4994054;28;20049;-61
2022/01/18 11:49:33;;;;;;;38.75;18.27;;;;;;;6.16;92.56;101457.50;4995127;28;20085;-61
2022/01/18 11:52:05;;;;;;;52.38;20.35;;;;;;;6.13;91.96;101457.81;4986443;28;20498;-61
2022/01/18 11:57:22;;;;;;;53.83;20.58;;;;;;;6.34;90.66;101461.91;4988858;28;20819;-61
2022/01/18 12:00:11;;;;;;;50.83;19.80;;;;;;;6.03;92.20;101462.44;4985792;28;20034;-61
2022/01/18 12:02:41;;;;;;;47.03;19.95;;;;;;;5.92;92.21;101455.53;4948904;28;20051;-61
2022/01/18 12:05:14;;;;;;;54.72;20.10;;;;;;;6.14;93.33;101456.00;4964591;28;20034;-61
2022/01/18 12:07:41;;;;;;;55.65;20.70;;;;;;;6.37;92.46;101451.78;4988789;28;20054;-61
2022/01/18 12:10:09;;;;;;;48.70;18.83;;;;;;;6.21;93.27;101446.38;4988885;28;20037;-61
2022/01/18 12:12:40;;;;;;;56.83;21.48;;;;;;;6.15;93.24;101441.69;4993211;28;20022;-61
2022/01/18 12:15:15;;;;;;;53.55;19.83;;;;;;;6.48;91.84;101443.47;4982245;28;20149;-61
2022/01/18 12:17:47;;;;;;;55.72;20.23;;;;;;;6.45;91.19;101437.66;4986520;28;20034;-61
2022/01/18 12:20:34;;;;;;;55.63;19.00;;;;;;;6.28;90.36;101441.25;4991309;28;20029;-61
2022/01/18 12:23:07;;;;;;;76.22;29.60;;;;;;;6.23;92.50;101434.56;4985318;28;20034;-61
2022/01/18 12:25:35;;;;;;;54.05;17.50;;;;;;;5.99;90.62;101439.78;4990438;28;20044;-61
2022/01/18 12:28:35;;;;;;;45.08;17.73;;;;;;;6.10;90.39;101434.19;4985883;28;20034;-61
2022/01/18 12:31:23;;;;;;;45.83;16.70;;;;;;;6.23;90.98;101434.56;4976318;28;20052;-61